createdAt,value
2022-12-11T00:00:52.642Z,82.44
2022-12-11T00:02:24.313Z,81.81
2022-12-11T00:03:56.004Z,82.24
2022-12-11T00:05:27.612Z,82.23
2022-12-11T00:06:59.178Z,82.15
2022-12-11T00:08:30.833Z,82.33
2022-12-11T00:10:02.399Z,81.61
2022-12-11T00:11:33.927Z,81.65
2022-12-11T00:13:05.662Z,82.08
2022-12-11T00:14:37.281Z,81.60
2022-12-11T00:16:09.550Z,82.27
2022-12-11T00:17:41.273Z,82.30
2022-12-11T00:19:13.233Z,82.20
2022-12-11T00:20:44.776Z,81.47
2022-12-11T00:22:16.359Z,81.68
2022-12-11T00:23:47.971Z,82.42
2022-12-11T00:25:19.532Z,83.09
2022-12-11T00:26:51.223Z,83.46
2022-12-11T00:28:23.506Z,83.40
2022-12-11T00:29:55.113Z,82.56
2022-12-11T00:31:26.808Z,82.51
2022-12-11T00:32:59.204Z,82.55
2022-12-11T00:34:30.745Z,83.25
2022-12-11T00:36:02.424Z,83.60
2022-12-11T00:37:34.145Z,84.26
2022-12-11T00:39:06.041Z,84.31
2022-12-11T00:40:37.656Z,84.64
2022-12-11T00:42:09.690Z,84.55
2022-12-11T00:43:41.343Z,84.95
2022-12-11T00:45:13.109Z,85.05
2022-12-11T00:46:44.885Z,85.13
2022-12-11T00:48:16.488Z,84.47
2022-12-11T00:49:50.012Z,84.50
2022-12-11T00:51:22.170Z,84.73
2022-12-11T00:52:53.806Z,85.06
2022-12-11T00:54:25.546Z,85.05
2022-12-11T00:55:57.374Z,85.31
2022-12-11T00:57:28.959Z,85.45
2022-12-11T00:59:00.567Z,85.46
2022-12-11T01:00:32.707Z,84.99
2022-12-11T01:02:04.317Z,85.39
2022-12-11T01:03:36.396Z,85.62
2022-12-11T01:05:10.360Z,85.64
2022-12-11T01:06:42.141Z,84.81
2022-12-11T01:08:13.757Z,84.97
2022-12-11T01:10:04.166Z,85.88
2022-12-11T01:11:35.826Z,85.95
2022-12-11T01:13:07.605Z,85.96
2022-12-11T01:14:39.206Z,85.30
2022-12-11T01:16:14.373Z,86.01
2022-12-11T01:17:46.009Z,85.01
2022-12-11T01:19:17.516Z,85.42
2022-12-11T01:20:49.210Z,86.22
2022-12-11T01:22:21.065Z,85.73
2022-12-11T01:23:52.885Z,85.10
2022-12-11T01:25:25.628Z,84.90
2022-12-11T01:26:57.274Z,84.95
2022-12-11T01:28:28.837Z,84.88
2022-12-11T01:30:00.459Z,85.46
2022-12-11T01:31:32.163Z,85.35
2022-12-11T01:33:03.916Z,84.76
2022-12-11T01:34:35.579Z,85.28
2022-12-11T01:36:08.847Z,85.56
2022-12-11T01:37:40.497Z,84.72
2022-12-11T01:39:12.178Z,84.83
2022-12-11T01:40:54.373Z,84.32
2022-12-11T01:42:26.327Z,83.50
2022-12-11T01:44:05.475Z,83.11
2022-12-11T01:45:44.728Z,83.62
2022-12-11T01:47:17.118Z,83.62
2022-12-11T01:48:48.776Z,83.91
2022-12-11T01:50:20.558Z,84.31
2022-12-11T01:52:01.451Z,84.28
2022-12-11T01:53:41.663Z,83.28
2022-12-11T01:55:14.688Z,83.27
2022-12-11T01:56:49.990Z,84.02
2022-12-11T01:58:28.402Z,83.89
2022-12-11T02:00:00.123Z,83.76
2022-12-11T02:01:33.670Z,84.02
2022-12-11T02:03:05.261Z,84.54
2022-12-11T02:04:39.022Z,84.51
2022-12-11T02:06:39.775Z,83.71
2022-12-11T02:08:11.891Z,84.35
2022-12-11T02:09:46.602Z,84.58
2022-12-11T02:11:21.938Z,84.48
2022-12-11T02:13:04.944Z,84.39
2022-12-11T02:14:54.411Z,84.11
2022-12-11T02:16:31.113Z,84.98
2022-12-11T02:18:24.804Z,83.97
2022-12-11T02:20:18.389Z,84.05
2022-12-11T02:21:55.441Z,84.55
2022-12-11T02:23:32.933Z,84.26
2022-12-11T02:25:31.338Z,84.53
2022-12-11T02:27:44.124Z,85.10
2022-12-11T02:29:25.235Z,84.61
2022-12-11T02:31:10.379Z,84.55
2022-12-11T02:32:47.686Z,85.58
2022-12-11T02:34:25.256Z,85.67
2022-12-11T02:35:57.348Z,86.56
2022-12-11T02:37:32.094Z,86.42
2022-12-11T02:39:05.778Z,85.96
2022-12-11T02:40:40.795Z,86.51
2022-12-11T02:42:16.372Z,86.04
2022-12-11T02:43:50.492Z,86.06
2022-12-11T02:45:24.317Z,86.46
2022-12-11T02:46:56.448Z,86.72
2022-12-11T02:48:28.107Z,86.35
2022-12-11T02:50:02.105Z,86.67
2022-12-11T02:51:39.084Z,87.14
2022-12-11T02:53:13.822Z,87.27
2022-12-11T02:54:47.225Z,86.50
2022-12-11T02:56:36.602Z,87.29
2022-12-11T02:58:19.725Z,86.91
2022-12-11T02:59:51.514Z,87.04
2022-12-11T03:01:23.381Z,87.14
2022-12-11T03:02:55.278Z,86.31
2022-12-11T03:04:26.971Z,86.65
2022-12-11T03:05:58.616Z,86.37
2022-12-11T03:07:36.116Z,85.33
2022-12-11T03:09:08.183Z,86.12
2022-12-11T03:10:39.863Z,86.10
2022-12-11T03:12:17.100Z,85.20
2022-12-11T03:13:48.900Z,85.52
2022-12-11T03:15:23.145Z,85.46
2022-12-11T03:17:12.107Z,85.15
2022-12-11T03:18:58.736Z,85.79
2022-12-11T03:20:36.824Z,86.14
2022-12-11T03:22:20.951Z,86.39
2022-12-11T03:24:05.192Z,85.59
2022-12-11T03:25:43.543Z,84.59
2022-12-11T03:27:23.838Z,84.67
2022-12-11T03:29:03.072Z,84.48
2022-12-11T03:30:37.131Z,84.62
2022-12-11T03:32:13.991Z,85.34
2022-12-11T03:33:50.477Z,86.04
2022-12-11T03:35:45.360Z,86.55
2022-12-11T03:37:17.822Z,85.93
2022-12-11T03:39:12.804Z,86.58
2022-12-11T03:40:49.268Z,87.29
2022-12-11T03:42:23.513Z,88.29
2022-12-11T03:43:58.443Z,88.10
2022-12-11T03:45:30.409Z,88.44
2022-12-11T03:47:05.976Z,87.96
2022-12-11T03:48:41.772Z,88.62
2022-12-11T03:50:16.374Z,88.90
2022-12-11T03:51:51.362Z,89.28
2022-12-11T03:53:25.728Z,88.71
2022-12-11T03:55:00.961Z,89.15
2022-12-11T03:56:35.642Z,89.61
2022-12-11T03:58:07.705Z,89.73
2022-12-11T03:59:39.556Z,90.23
2022-12-11T04:01:11.618Z,88.92
2022-12-11T04:02:44.612Z,89.99
2022-12-11T04:04:16.360Z,89.76
2022-12-11T04:05:50.185Z,89.29
2022-12-11T04:07:21.892Z,89.44
2022-12-11T04:08:53.377Z,89.38
2022-12-11T04:10:24.990Z,88.70
2022-12-11T04:11:56.570Z,89.37
2022-12-11T04:13:28.163Z,88.73
2022-12-11T04:15:02.367Z,89.64
2022-12-11T04:16:34.147Z,88.86
2022-12-11T04:18:26.237Z,89.48
2022-12-11T04:20:16.468Z,90.22
2022-12-11T04:22:06.278Z,89.74
2022-12-11T04:23:56.432Z,89.26
2022-12-11T04:25:27.985Z,88.14
2022-12-11T04:26:59.846Z,88.38
2022-12-11T04:28:31.465Z,89.40
2022-12-11T04:30:06.644Z,89.83
2022-12-11T04:31:38.212Z,89.67
2022-12-11T04:33:09.782Z,89.72
2022-12-11T04:34:41.398Z,90.14
2022-12-11T04:36:14.115Z,90.41
2022-12-11T04:37:46.173Z,90.32
2022-12-11T04:39:17.779Z,89.58
2022-12-11T04:40:49.339Z,89.41
2022-12-11T04:42:20.914Z,90.08
2022-12-11T04:43:52.497Z,89.64
2022-12-11T04:45:24.156Z,89.17
2022-12-11T04:46:55.726Z,89.00
2022-12-11T04:48:27.269Z,89.36
2022-12-11T04:49:58.844Z,87.95
2022-12-11T04:51:30.756Z,89.03
2022-12-11T04:53:02.355Z,88.86
2022-12-11T04:54:34.024Z,88.77
2022-12-11T04:56:07.502Z,89.13
2022-12-11T04:57:39.273Z,88.17
2022-12-11T04:59:10.877Z,88.48
2022-12-11T05:00:42.711Z,88.24
2022-12-11T05:02:15.666Z,88.03
2022-12-11T05:03:48.058Z,87.56
2022-12-11T05:05:19.672Z,87.07
2022-12-11T05:06:51.357Z,87.60
2022-12-11T05:08:22.975Z,87.64
2022-12-11T05:09:54.559Z,88.11
2022-12-11T05:11:26.088Z,88.47
2022-12-11T05:12:57.682Z,88.10
2022-12-11T05:14:31.921Z,88.54
2022-12-11T05:16:05.710Z,88.42
2022-12-11T05:17:37.622Z,88.51
2022-12-11T05:19:09.427Z,87.18
2022-12-11T05:20:41.049Z,87.15
2022-12-11T05:22:12.593Z,87.21
2022-12-11T05:23:44.306Z,88.00
2022-12-11T05:25:15.846Z,87.88
2022-12-11T05:26:47.421Z,87.96
2022-12-11T05:28:18.990Z,86.88
2022-12-11T05:29:53.655Z,87.65
2022-12-11T05:31:29.441Z,87.65
2022-12-11T05:33:01.052Z,87.67
2022-12-11T05:34:32.975Z,87.61
2022-12-11T05:36:04.886Z,87.75
2022-12-11T05:37:36.432Z,87.54
2022-12-11T05:39:08.039Z,86.33
2022-12-11T05:40:39.761Z,86.38
2022-12-11T05:42:11.377Z,87.04
2022-12-11T05:43:43.337Z,86.71
2022-12-11T05:45:14.974Z,86.53
2022-12-11T05:46:46.545Z,87.33
2022-12-11T05:48:18.163Z,87.18
2022-12-11T05:49:49.813Z,87.59
2022-12-11T05:51:21.721Z,87.73
2022-12-11T05:52:53.250Z,87.14
2022-12-11T05:54:24.831Z,87.53
2022-12-11T05:56:02.346Z,87.40
2022-12-11T05:57:34.008Z,87.03
2022-12-11T05:59:06.553Z,86.90
2022-12-11T06:00:41.101Z,86.92
2022-12-11T06:02:13.141Z,87.33
2022-12-11T06:03:44.831Z,87.23
2022-12-11T06:05:16.574Z,86.88
2022-12-11T06:06:48.157Z,87.32
2022-12-11T06:08:19.700Z,88.16
2022-12-11T06:09:51.311Z,88.35
2022-12-11T06:11:24.452Z,88.75
2022-12-11T06:12:56.073Z,88.90
2022-12-11T06:14:27.621Z,89.18
2022-12-11T06:16:04.905Z,88.91
2022-12-11T06:17:36.576Z,87.71
2022-12-11T06:19:17.942Z,87.55
2022-12-11T06:20:49.597Z,87.75
2022-12-11T06:22:21.125Z,88.57
2022-12-11T06:23:54.915Z,88.11
2022-12-11T06:25:26.538Z,88.43
2022-12-11T06:26:58.419Z,88.85
2022-12-11T06:28:30.029Z,88.20
2022-12-11T06:30:01.754Z,88.83
2022-12-11T06:31:33.459Z,88.02
2022-12-11T06:33:05.114Z,88.37
2022-12-11T06:34:36.841Z,89.03
2022-12-11T06:36:13.770Z,88.80
2022-12-11T06:37:45.381Z,88.63
2022-12-11T06:39:16.951Z,88.99
2022-12-11T06:40:55.990Z,88.37
2022-12-11T06:42:29.894Z,88.29
2022-12-11T06:44:01.468Z,88.43
2022-12-11T06:45:33.214Z,88.94
2022-12-11T06:47:05.406Z,88.66
2022-12-11T06:48:37.903Z,87.79
2022-12-11T06:50:09.868Z,87.73
2022-12-11T06:51:41.371Z,88.02
2022-12-11T06:53:14.948Z,88.52
2022-12-11T06:54:46.569Z,87.85
2022-12-11T06:56:18.257Z,88.25
2022-12-11T06:57:49.919Z,88.83
2022-12-11T06:59:21.560Z,88.03
2022-12-11T07:00:53.144Z,88.61
2022-12-11T07:02:24.743Z,88.76
2022-12-11T07:03:58.845Z,88.30
2022-12-11T07:05:31.333Z,87.30
2022-12-11T07:07:02.871Z,87.68
2022-12-11T07:08:34.965Z,88.62
2022-12-11T07:10:08.612Z,88.74
2022-12-11T07:11:40.425Z,88.97
2022-12-11T07:13:12.079Z,88.57
2022-12-11T07:14:43.616Z,88.07
2022-12-11T07:16:16.408Z,88.26
2022-12-11T07:17:48.069Z,87.44
2022-12-11T07:19:19.622Z,86.37
2022-12-11T07:20:51.205Z,86.93
2022-12-11T07:22:22.942Z,86.64
2022-12-11T07:23:54.618Z,86.56
2022-12-11T07:25:26.182Z,87.65
2022-12-11T07:26:57.745Z,87.14
2022-12-11T07:28:29.333Z,87.66
2022-12-11T07:30:00.918Z,87.54
2022-12-11T07:31:32.629Z,86.92
2022-12-11T07:33:04.343Z,86.85
2022-12-11T07:34:36.116Z,86.77
2022-12-11T07:36:10.239Z,86.66
2022-12-11T07:37:41.793Z,86.23
2022-12-11T07:39:13.499Z,86.25
2022-12-11T07:40:45.126Z,85.44
2022-12-11T07:42:16.839Z,86.05
2022-12-11T07:43:48.553Z,85.28
2022-12-11T07:45:20.172Z,85.87
2022-12-11T07:46:51.765Z,85.52
2022-12-11T07:48:23.366Z,85.49
2022-12-11T07:49:54.923Z,85.68
2022-12-11T07:51:29.336Z,85.35
2022-12-11T07:53:00.882Z,85.94
2022-12-11T07:54:32.513Z,85.04
2022-12-11T07:56:04.556Z,85.49
2022-12-11T07:57:36.352Z,85.88
2022-12-11T07:59:08.319Z,85.72
2022-12-11T08:00:39.997Z,85.91
2022-12-11T08:02:12.032Z,86.40
2022-12-11T08:03:43.991Z,85.93
2022-12-11T08:05:15.617Z,86.34
2022-12-11T08:06:47.702Z,85.96
2022-12-11T08:08:20.196Z,85.13
2022-12-11T08:09:51.871Z,84.66
2022-12-11T08:11:24.003Z,83.96
2022-12-11T08:12:55.532Z,84.28
2022-12-11T08:14:27.070Z,83.96
2022-12-11T08:15:59.561Z,85.20
2022-12-11T08:17:36.652Z,84.69
2022-12-11T08:19:12.269Z,84.12
2022-12-11T08:20:43.836Z,84.32
2022-12-11T08:22:16.396Z,84.65
2022-12-11T08:23:48.892Z,84.25
2022-12-11T08:25:20.493Z,84.45
2022-12-11T08:26:52.149Z,84.72
2022-12-11T08:28:23.687Z,84.50
2022-12-11T08:29:55.196Z,84.92
2022-12-11T08:31:27.605Z,84.39
2022-12-11T08:32:59.848Z,84.60
2022-12-11T08:34:31.433Z,84.82
2022-12-11T08:36:04.939Z,85.01
2022-12-11T08:37:36.588Z,84.16
2022-12-11T08:39:08.263Z,84.43
2022-12-11T08:40:39.857Z,84.85
2022-12-11T08:42:11.480Z,83.84
2022-12-11T08:43:44.030Z,84.11
2022-12-11T08:45:24.896Z,83.86
2022-12-11T08:46:56.559Z,83.91
2022-12-11T08:48:28.140Z,83.95
2022-12-11T08:49:59.716Z,83.50
2022-12-11T08:51:31.530Z,83.26
2022-12-11T08:53:03.242Z,83.62
2022-12-11T08:54:36.374Z,82.83
2022-12-11T08:56:16.568Z,81.52
2022-12-11T08:57:48.136Z,80.64
2022-12-11T08:59:19.722Z,80.71
2022-12-11T09:00:51.318Z,79.77
2022-12-11T09:02:22.990Z,78.45
2022-12-11T09:03:56.480Z,78.37
2022-12-11T09:05:28.026Z,77.60
2022-12-11T09:06:59.542Z,77.47
2022-12-11T09:08:31.200Z,77.41
2022-12-11T09:10:03.914Z,77.69
2022-12-11T09:11:37.866Z,77.62
2022-12-11T09:13:09.470Z,78.88
2022-12-11T09:14:41.061Z,79.56
2022-12-11T09:16:15.600Z,79.19
2022-12-11T09:17:47.199Z,79.88
2022-12-11T09:19:18.877Z,79.86
2022-12-11T09:20:58.738Z,79.48
2022-12-11T09:22:33.410Z,79.30
2022-12-11T09:24:05.747Z,79.58
2022-12-11T09:25:40.532Z,80.04
2022-12-11T09:27:12.072Z,79.23
2022-12-11T09:28:46.610Z,79.54
2022-12-11T09:30:18.761Z,78.83
2022-12-11T09:31:50.366Z,79.84
2022-12-11T09:33:22.072Z,78.96
2022-12-11T09:34:53.951Z,79.60
2022-12-11T09:36:26.164Z,79.37
2022-12-11T09:37:57.997Z,79.14
2022-12-11T09:39:30.126Z,79.35
2022-12-11T09:41:02.704Z,79.57
2022-12-11T09:43:06.710Z,79.07
2022-12-11T09:44:42.208Z,78.99
2022-12-11T09:46:16.544Z,79.28
2022-12-11T09:47:52.961Z,79.14
2022-12-11T09:49:35.104Z,79.24
2022-12-11T09:51:23.254Z,79.36
2022-12-11T09:53:09.432Z,78.60
2022-12-11T09:54:50.096Z,78.52
2022-12-11T09:56:34.617Z,77.40
2022-12-11T09:58:27.798Z,76.64
2022-12-11T10:00:05.966Z,76.85
2022-12-11T10:01:46.466Z,77.07
2022-12-11T10:03:26.869Z,77.77
2022-12-11T10:05:22.485Z,77.26
2022-12-11T10:06:54.042Z,77.47
2022-12-11T10:08:50.618Z,76.73
2022-12-11T10:10:47.077Z,76.86
2022-12-11T10:12:40.068Z,76.65
2022-12-11T10:14:17.366Z,76.70
2022-12-11T10:16:03.883Z,76.29
2022-12-11T10:17:38.667Z,77.22
2022-12-11T10:19:19.387Z,76.67
2022-12-11T10:20:52.997Z,75.88
2022-12-11T10:22:29.879Z,76.17
2022-12-11T10:24:05.734Z,76.09
2022-12-11T10:25:42.316Z,76.66
2022-12-11T10:27:22.041Z,76.51
2022-12-11T10:28:54.385Z,75.66
2022-12-11T10:30:34.726Z,76.47
2022-12-11T10:32:16.137Z,76.49
2022-12-11T10:33:53.796Z,76.35
2022-12-11T10:35:53.442Z,76.52
2022-12-11T10:37:25.329Z,75.82
2022-12-11T10:38:57.973Z,75.80
2022-12-11T10:40:32.402Z,75.78
2022-12-11T10:42:19.290Z,75.86
2022-12-11T10:43:53.290Z,75.76
2022-12-11T10:45:25.029Z,75.92
2022-12-11T10:47:18.092Z,76.23
2022-12-11T10:48:55.860Z,75.25
2022-12-11T10:50:27.552Z,75.56
2022-12-11T10:52:02.238Z,74.54
2022-12-11T10:53:34.923Z,74.11
2022-12-11T10:55:34.673Z,75.00
2022-12-11T10:57:08.891Z,75.11
2022-12-11T10:58:49.234Z,75.44
2022-12-11T11:00:34.645Z,74.32
2022-12-11T11:02:18.306Z,74.70
2022-12-11T11:03:58.947Z,74.76
2022-12-11T11:05:36.130Z,74.51
2022-12-11T11:07:16.965Z,74.81
2022-12-11T11:08:51.160Z,73.64
2022-12-11T11:10:22.787Z,73.69
2022-12-11T11:11:54.667Z,73.19
2022-12-11T11:13:28.860Z,74.03
2022-12-11T11:15:07.533Z,73.59
2022-12-11T11:16:41.403Z,73.10
2022-12-11T11:18:23.850Z,73.01
2022-12-11T11:19:57.920Z,72.71
2022-12-11T11:21:31.888Z,71.79
2022-12-11T11:23:14.144Z,71.63
2022-12-11T11:24:56.543Z,71.44
2022-12-11T11:27:04.386Z,71.25
2022-12-11T11:28:34.359Z,71.56
2022-12-11T11:30:22.691Z,71.75
2022-12-11T11:31:54.654Z,71.16
2022-12-11T11:33:26.736Z,71.47
2022-12-11T11:35:29.039Z,71.35
2022-12-11T11:37:05.651Z,70.74
2022-12-11T11:38:49.892Z,71.45
2022-12-11T11:40:37.038Z,71.66
2022-12-11T11:42:27.858Z,71.39
2022-12-11T11:44:02.404Z,70.90
2022-12-11T11:46:20.535Z,70.97
2022-12-11T11:48:18.158Z,72.14
2022-12-11T11:49:55.916Z,73.41
2022-12-11T11:51:36.008Z,74.45
2022-12-11T11:53:20.312Z,74.58
2022-12-11T11:55:24.450Z,74.58
2022-12-11T11:56:57.296Z,74.70
2022-12-11T11:58:57.566Z,74.54
2022-12-11T12:00:33.940Z,74.41
2022-12-11T12:02:14.991Z,75.07
2022-12-11T12:03:49.315Z,75.30
2022-12-11T12:05:35.553Z,74.39
2022-12-11T12:07:32.600Z,73.63
2022-12-11T12:09:16.939Z,72.81
2022-12-11T12:10:59.915Z,72.33
2022-12-11T12:12:40.870Z,72.74
2022-12-11T12:14:50.725Z,72.32
2022-12-11T12:16:53.637Z,73.08
2022-12-11T12:19:03.936Z,73.71
2022-12-11T12:20:50.959Z,73.64
2022-12-11T12:22:47.367Z,73.61
2022-12-11T12:24:28.382Z,73.17
2022-12-11T12:26:15.176Z,72.91
2022-12-11T12:28:19.922Z,73.83
2022-12-11T12:30:04.675Z,73.62
2022-12-11T12:31:49.705Z,74.05
2022-12-11T12:33:22.035Z,74.00
2022-12-11T12:35:08.756Z,73.95
2022-12-11T12:36:55.007Z,73.97
2022-12-11T12:38:50.370Z,74.16
2022-12-11T12:40:28.514Z,74.26
2022-12-11T12:42:26.886Z,73.51
2022-12-11T12:44:13.756Z,73.08
2022-12-11T12:45:48.302Z,73.00
2022-12-11T12:47:21.967Z,72.35
2022-12-11T12:48:56.159Z,72.45
2022-12-11T12:50:44.093Z,72.80
2022-12-11T12:52:37.481Z,72.55
2022-12-11T12:54:14.826Z,72.85
2022-12-11T12:55:48.554Z,72.25
2022-12-11T12:57:21.305Z,71.99
2022-12-11T12:58:53.073Z,72.74
2022-12-11T13:00:37.702Z,72.62
2022-12-11T13:02:16.519Z,72.67
2022-12-11T13:04:06.520Z,72.36
2022-12-11T13:05:43.747Z,72.47
2022-12-11T13:07:24.694Z,72.70
2022-12-11T13:08:57.062Z,72.63
2022-12-11T13:10:34.805Z,72.54
2022-12-11T13:12:16.156Z,72.75
2022-12-11T13:14:03.371Z,73.04
2022-12-11T13:15:46.127Z,73.63
2022-12-11T13:17:21.181Z,73.74
2022-12-11T13:18:54.891Z,74.29
2022-12-11T13:20:30.566Z,74.90
2022-12-11T13:22:05.000Z,73.97
2022-12-11T13:23:40.424Z,73.44
2022-12-11T13:25:28.102Z,73.53
2022-12-11T13:27:25.451Z,73.56
2022-12-11T13:28:58.849Z,73.27
2022-12-11T13:30:31.921Z,73.59
2022-12-11T13:32:22.214Z,73.43
2022-12-11T13:33:57.246Z,73.46
2022-12-11T13:35:31.301Z,73.87
2022-12-11T13:37:04.855Z,73.54
2022-12-11T13:38:39.100Z,73.34
2022-12-11T13:40:26.866Z,73.63
2022-12-11T13:42:02.337Z,73.36
2022-12-11T13:43:34.290Z,73.59
2022-12-11T13:45:08.578Z,72.94
2022-12-11T13:46:41.466Z,73.09
2022-12-11T13:48:21.475Z,72.95
2022-12-11T13:49:59.864Z,73.44
2022-12-11T13:51:35.231Z,73.53
2022-12-11T13:53:07.824Z,73.99
2022-12-11T13:54:49.159Z,74.41
2022-12-11T13:56:23.365Z,73.96
2022-12-11T13:57:55.790Z,74.07
2022-12-11T13:59:32.930Z,74.02
2022-12-11T14:01:11.381Z,73.68
2022-12-11T14:02:43.748Z,73.74
2022-12-11T14:04:19.815Z,73.78
2022-12-11T14:05:51.646Z,73.08
2022-12-11T14:07:30.682Z,73.42
2022-12-11T14:09:07.350Z,73.07
2022-12-11T14:10:40.141Z,73.37
2022-12-11T14:12:21.849Z,72.64
2022-12-11T14:13:56.133Z,72.32
2022-12-11T14:15:30.150Z,72.55
2022-12-11T14:17:02.095Z,71.96
2022-12-11T14:18:36.618Z,71.78
2022-12-11T14:20:18.720Z,71.83
2022-12-11T14:22:01.962Z,72.16
2022-12-11T14:23:36.354Z,72.85
2022-12-11T14:25:21.787Z,72.71
2022-12-11T14:26:54.779Z,72.54
2022-12-11T14:28:28.253Z,72.75
2022-12-11T14:30:10.716Z,72.93
2022-12-11T14:31:44.595Z,72.25
2022-12-11T14:33:17.626Z,71.67
2022-12-11T14:34:51.481Z,71.55
2022-12-11T14:36:23.830Z,71.82
2022-12-11T14:37:58.367Z,72.17
2022-12-11T14:39:41.259Z,72.72
2022-12-11T14:41:25.381Z,72.25
2022-12-11T14:43:01.291Z,72.79
2022-12-11T14:44:51.913Z,72.85
2022-12-11T14:46:40.325Z,73.82
2022-12-11T14:48:22.639Z,74.30
2022-12-11T14:50:05.925Z,73.72
2022-12-11T14:51:41.130Z,73.19
2022-12-11T14:53:23.440Z,72.76
2022-12-11T14:55:01.548Z,72.23
2022-12-11T14:56:33.893Z,72.91
2022-12-11T14:58:14.656Z,71.49
2022-12-11T14:59:47.991Z,71.49
2022-12-11T15:01:32.386Z,71.98
2022-12-11T15:03:22.748Z,72.66
2022-12-11T15:05:11.351Z,72.35
2022-12-11T15:06:48.401Z,72.43
2022-12-11T15:08:26.111Z,72.24
2022-12-11T15:09:58.561Z,73.93
2022-12-11T15:11:32.059Z,72.53
2022-12-11T15:13:05.894Z,73.00
2022-12-11T15:14:56.128Z,72.73
2022-12-11T15:16:31.679Z,73.09
2022-12-11T15:18:08.332Z,72.95
2022-12-11T15:19:40.688Z,73.17
2022-12-11T15:21:12.769Z,73.90
2022-12-11T15:22:44.758Z,74.12
2022-12-11T15:24:40.109Z,73.83
2022-12-11T15:26:12.088Z,74.13
2022-12-11T15:27:43.801Z,75.04
2022-12-11T15:29:37.699Z,74.58
2022-12-11T15:31:25.006Z,74.86
2022-12-11T15:33:12.907Z,74.55
2022-12-11T15:34:52.439Z,74.96
2022-12-11T15:36:35.132Z,74.62
2022-12-11T15:38:07.029Z,75.16
2022-12-11T15:39:38.674Z,75.05
2022-12-11T15:41:16.683Z,75.39
2022-12-11T15:42:49.317Z,76.25
2022-12-11T15:44:23.597Z,76.35
2022-12-11T15:45:55.541Z,76.71
2022-12-11T15:47:29.816Z,76.81
2022-12-11T15:49:01.483Z,76.65
2022-12-11T15:50:33.079Z,76.56
2022-12-11T15:52:04.980Z,75.97
2022-12-11T15:53:36.852Z,76.46
2022-12-11T15:55:08.950Z,77.20
2022-12-11T15:56:40.896Z,77.30
2022-12-11T15:58:19.578Z,77.36
2022-12-11T15:59:54.094Z,77.26
2022-12-11T16:01:25.756Z,77.04
2022-12-11T16:02:58.097Z,76.88
2022-12-11T16:04:29.871Z,76.50
2022-12-11T16:06:01.615Z,76.93
2022-12-11T16:07:33.662Z,77.09
2022-12-11T16:09:05.688Z,77.50
2022-12-11T16:10:37.583Z,77.15
2022-12-11T16:12:09.553Z,77.21
2022-12-11T16:13:41.174Z,77.21
2022-12-11T16:15:19.895Z,77.55
2022-12-11T16:16:54.600Z,77.39
2022-12-11T16:18:26.800Z,77.24
2022-12-11T16:19:58.403Z,77.31
2022-12-11T16:21:30.080Z,77.21
2022-12-11T16:23:01.852Z,77.78
2022-12-11T16:24:33.486Z,77.77
2022-12-11T16:26:09.896Z,77.51
2022-12-11T16:27:41.642Z,78.04
2022-12-11T16:29:13.305Z,77.87
2022-12-11T16:30:45.393Z,77.87
2022-12-11T16:32:17.223Z,78.25
2022-12-11T16:33:48.838Z,78.21
2022-12-11T16:35:21.677Z,78.81
2022-12-11T16:36:53.348Z,77.96
2022-12-11T16:38:25.090Z,77.18
2022-12-11T16:39:56.786Z,77.79
2022-12-11T16:41:28.328Z,78.08
2022-12-11T16:43:01.089Z,78.10
2022-12-11T16:44:33.365Z,78.21
2022-12-11T16:46:05.241Z,77.87
2022-12-11T16:47:36.809Z,78.04
2022-12-11T16:49:08.835Z,78.79
2022-12-11T16:50:40.533Z,78.09
2022-12-11T16:52:13.034Z,77.95
2022-12-11T16:53:46.880Z,78.05
2022-12-11T16:55:22.109Z,78.09
2022-12-11T16:56:53.968Z,77.75
2022-12-11T16:58:25.576Z,77.98
2022-12-11T16:59:57.287Z,78.17
2022-12-11T17:01:29.105Z,77.76
2022-12-11T17:03:01.566Z,78.19
2022-12-11T17:04:33.276Z,78.54
2022-12-11T17:06:14.883Z,78.25
2022-12-11T17:07:46.875Z,78.26
2022-12-11T17:09:19.048Z,78.31
2022-12-11T17:10:51.895Z,78.37
2022-12-11T17:12:27.815Z,78.66
2022-12-11T17:14:00.664Z,78.69
2022-12-11T17:15:32.621Z,78.78
2022-12-11T17:17:04.550Z,79.02
2022-12-11T17:18:36.505Z,79.13
2022-12-11T17:20:09.566Z,79.10
2022-12-11T17:21:41.373Z,79.80
2022-12-11T17:23:13.590Z,79.36
2022-12-11T17:24:45.239Z,79.47
2022-12-11T17:26:17.391Z,79.90
2022-12-11T17:27:49.923Z,79.27
2022-12-11T17:29:22.015Z,79.30
2022-12-11T17:30:53.749Z,79.47
2022-12-11T17:32:25.350Z,79.16
2022-12-11T17:34:00.594Z,79.08
2022-12-11T17:35:33.161Z,79.65
2022-12-11T17:37:05.495Z,79.15
2022-12-11T17:38:37.392Z,78.94
2022-12-11T17:40:09.641Z,78.48
2022-12-11T17:41:41.605Z,78.88
2022-12-11T17:43:14.207Z,79.50
2022-12-11T17:44:46.321Z,79.38
2022-12-11T17:46:19.035Z,80.37
2022-12-11T17:47:50.824Z,79.76
2022-12-11T17:49:22.481Z,79.15
2022-12-11T17:50:54.292Z,79.69
2022-12-11T17:52:32.351Z,80.18
2022-12-11T17:54:06.197Z,80.40
2022-12-11T17:55:42.689Z,80.72
2022-12-11T17:57:14.506Z,80.39
2022-12-11T17:58:46.397Z,80.76
2022-12-11T18:00:18.402Z,81.70
2022-12-11T18:01:50.449Z,81.87
2022-12-11T18:03:22.842Z,81.44
2022-12-11T18:04:55.053Z,81.64
2022-12-11T18:06:27.410Z,81.57
2022-12-11T18:07:59.434Z,82.29
2022-12-11T18:09:31.104Z,82.14
2022-12-11T18:11:15.513Z,82.74
2022-12-11T18:12:47.186Z,82.43
2022-12-11T18:14:19.039Z,82.33
2022-12-11T18:16:16.867Z,82.67
2022-12-11T18:17:48.605Z,82.94
2022-12-11T18:19:22.179Z,83.73
2022-12-11T18:20:53.902Z,84.07
2022-12-11T18:22:25.753Z,83.57
2022-12-11T18:24:00.344Z,83.63
2022-12-11T18:25:32.963Z,84.31
2022-12-11T18:27:05.065Z,83.93
2022-12-11T18:28:37.024Z,84.32
2022-12-11T18:30:09.556Z,84.94
2022-12-11T18:31:42.885Z,84.41
2022-12-11T18:33:15.005Z,85.01
2022-12-11T18:34:46.807Z,84.84
2022-12-11T18:36:20.225Z,84.95
2022-12-11T18:37:53.279Z,85.16
2022-12-11T18:39:26.193Z,85.08
2022-12-11T18:40:59.064Z,85.50
2022-12-11T18:42:33.326Z,85.38
2022-12-11T18:44:09.733Z,85.89
2022-12-11T18:45:45.961Z,86.04
2022-12-11T18:47:18.030Z,85.48
2022-12-11T18:48:50.559Z,86.48
2022-12-11T18:50:22.307Z,86.43
2022-12-11T18:51:54.290Z,86.08
2022-12-11T18:53:26.120Z,86.57
2022-12-11T18:54:57.757Z,86.38
2022-12-11T18:56:29.503Z,86.11
2022-12-11T18:58:01.281Z,86.51
2022-12-11T18:59:33.933Z,85.66
2022-12-11T19:01:11.667Z,86.17
2022-12-11T19:02:43.699Z,86.64
2022-12-11T19:04:15.720Z,86.90
2022-12-11T19:05:47.459Z,86.02
2022-12-11T19:07:19.281Z,86.55
2022-12-11T19:08:52.100Z,86.53
2022-12-11T19:10:25.239Z,86.75
2022-12-11T19:11:58.295Z,87.35
2022-12-11T19:13:30.547Z,86.86
2022-12-11T19:15:02.927Z,87.09
2022-12-11T19:16:39.340Z,86.89
2022-12-11T19:18:11.429Z,86.82
2022-12-11T19:19:46.187Z,87.31
2022-12-11T19:21:19.058Z,86.60
2022-12-11T19:22:51.774Z,87.41
2022-12-11T19:24:24.505Z,87.24
2022-12-11T19:25:56.159Z,87.54
2022-12-11T19:27:28.818Z,87.55
2022-12-11T19:29:00.841Z,87.78
2022-12-11T19:30:32.678Z,87.96
2022-12-11T19:32:05.475Z,87.63
2022-12-11T19:33:39.185Z,87.54
2022-12-11T19:35:13.960Z,87.49
2022-12-11T19:36:45.913Z,87.42
2022-12-11T19:38:17.664Z,88.21
2022-12-11T19:39:50.648Z,88.43
2022-12-11T19:41:27.902Z,88.68
2022-12-11T19:42:59.968Z,87.90
2022-12-11T19:44:33.173Z,88.40
2022-12-11T19:46:08.092Z,88.78
2022-12-11T19:47:39.960Z,88.02
2022-12-11T19:49:12.309Z,88.40
2022-12-11T19:50:44.998Z,89.19
2022-12-11T19:52:18.155Z,88.35
2022-12-11T19:53:52.382Z,87.83
2022-12-11T19:55:25.289Z,87.69
2022-12-11T19:56:57.797Z,88.31
2022-12-11T19:58:29.945Z,88.22
2022-12-11T20:00:02.240Z,88.02
2022-12-11T20:01:46.950Z,88.07
2022-12-11T20:03:18.751Z,88.58
2022-12-11T20:04:50.694Z,89.33
2022-12-11T20:06:22.883Z,88.83
2022-12-11T20:07:54.622Z,88.85
2022-12-11T20:09:26.484Z,88.17
2022-12-11T20:11:06.502Z,88.86
2022-12-11T20:12:40.385Z,87.80
2022-12-11T20:14:20.114Z,86.96
2022-12-11T20:15:51.839Z,86.69
2022-12-11T20:17:24.253Z,87.72
2022-12-11T20:18:57.303Z,88.23
2022-12-11T20:20:29.836Z,88.43
2022-12-11T20:22:01.495Z,88.62
2022-12-11T20:23:33.817Z,88.31
2022-12-11T20:25:05.985Z,88.49
2022-12-11T20:26:38.340Z,87.94
2022-12-11T20:28:10.166Z,88.43
2022-12-11T20:29:45.809Z,88.21
2022-12-11T20:31:21.826Z,88.02